sensor_id;sensor_type;location;lat;lon;timestamp;temperature;humidity
8856;DHT22;4464;50.882;4.730;2023-05-08T00:01:53;14.60;99.90
8856;DHT22;4464;50.882;4.730;2023-05-08T00:04:21;14.60;99.90
8856;DHT22;4464;50.882;4.730;2023-05-08T00:06:47;14.60;99.90
8856;DHT22;4464;50.882;4.730;2023-05-08T00:09:13;14.50;99.90
8856;DHT22;4464;50.882;4.730;2023-05-08T00:11:39;14.60;99.90
8856;DHT22;4464;50.882;4.730;2023-05-08T00:14:04;14.70;99.90
8856;DHT22;4464;50.882;4.730;2023-05-08T00:16:33;14.70;99.90
8856;DHT22;4464;50.882;4.730;2023-05-08T00:18:59;14.80;99.90
8856;DHT22;4464;50.882;4.730;2023-05-08T00:21:25;14.70;99.90
8856;DHT22;4464;50.882;4.730;2023-05-08T00:23:51;14.70;99.90
8856;DHT22;4464;50.882;4.730;2023-05-08T00:26:16;14.80;99.90
8856;DHT22;4464;50.882;4.730;2023-05-08T00:28:42;14.80;99.90
8856;DHT22;4464;50.882;4.730;2023-05-08T00:31:08;14.80;99.90
8856;DHT22;4464;50.882;4.730;2023-05-08T00:33:36;14.70;99.90
8856;DHT22;4464;50.882;4.730;2023-05-08T00:36:02;14.60;99.90
8856;DHT22;4464;50.882;4.730;2023-05-08T00:38:32;14.60;99.90
8856;DHT22;4464;50.882;4.730;2023-05-08T00:40:58;14.60;99.90
8856;DHT22;4464;50.882;4.730;2023-05-08T00:43:27;14.60;99.90
8856;DHT22;4464;50.882;4.730;2023-05-08T00:45:58;14.60;99.90
8856;DHT22;4464;50.882;4.730;2023-05-08T00:48:28;14.60;99.90
8856;DHT22;4464;50.882;4.730;2023-05-08T00:50:55;14.60;99.90
8856;DHT22;4464;50.882;4.730;2023-05-08T00:53:25;14.60;99.90
8856;DHT22;4464;50.882;4.730;2023-05-08T00:55:51;14.50;99.90
8856;DHT22;4464;50.882;4.730;2023-05-08T00:58:20;14.50;99.90
8856;DHT22;4464;50.882;4.730;2023-05-08T01:00:48;14.50;99.90
8856;DHT22;4464;50.882;4.730;2023-05-08T01:03:15;14.40;99.90
8856;DHT22;4464;50.882;4.730;2023-05-08T01:05:43;14.50;99.90
8856;DHT22;4464;50.882;4.730;2023-05-08T01:08:09;14.50;99.90
8856;DHT22;4464;50.882;4.730;2023-05-08T01:11:16;14.50;99.90
8856;DHT22;4464;50.882;4.730;2023-05-08T01:19:51;14.60;99.90
8856;DHT22;4464;50.882;4.730;2023-05-08T01:32:02;14.30;99.90
8856;DHT22;4464;50.882;4.730;2023-05-08T01:34:32;14.20;99.90
8856;DHT22;4464;50.882;4.730;2023-05-08T01:37:10;14.10;99.90
8856;DHT22;4464;50.882;4.730;2023-05-08T01:39:56;14.00;99.90
8856;DHT22;4464;50.882;4.730;2023-05-08T01:45:06;14.10;99.90
8856;DHT22;4464;50.882;4.730;2023-05-08T01:47:36;14.20;99.90
8856;DHT22;4464;50.882;4.730;2023-05-08T01:50:15;14.30;99.90
8856;DHT22;4464;50.882;4.730;2023-05-08T01:52:47;14.40;99.90
8856;DHT22;4464;50.882;4.730;2023-05-08T01:55:29;14.40;99.90
8856;DHT22;4464;50.882;4.730;2023-05-08T01:57:58;14.40;99.90
8856;DHT22;4464;50.882;4.730;2023-05-08T02:00:26;14.40;99.90
8856;DHT22;4464;50.882;4.730;2023-05-08T02:02:53;14.50;99.90
8856;DHT22;4464;50.882;4.730;2023-05-08T02:05:25;14.50;99.90
8856;DHT22;4464;50.882;4.730;2023-05-08T02:07:54;14.40;99.90
8856;DHT22;4464;50.882;4.730;2023-05-08T02:10:23;14.50;99.90
8856;DHT22;4464;50.882;4.730;2023-05-08T02:12:53;14.50;99.90
8856;DHT22;4464;50.882;4.730;2023-05-08T02:15:21;14.60;99.90
8856;DHT22;4464;50.882;4.730;2023-05-08T02:17:51;14.60;99.90
8856;DHT22;4464;50.882;4.730;2023-05-08T02:20:19;14.80;99.90
8856;DHT22;4464;50.882;4.730;2023-05-08T02:22:49;14.80;99.90
8856;DHT22;4464;50.882;4.730;2023-05-08T02:25:18;14.70;99.90
8856;DHT22;4464;50.882;4.730;2023-05-08T02:27:46;14.70;99.90
8856;DHT22;4464;50.882;4.730;2023-05-08T02:30:18;14.70;99.90
8856;DHT22;4464;50.882;4.730;2023-05-08T02:32:49;14.70;99.90
8856;DHT22;4464;50.882;4.730;2023-05-08T02:35:17;14.70;99.90
8856;DHT22;4464;50.882;4.730;2023-05-08T02:37:48;14.70;99.90
8856;DHT22;4464;50.882;4.730;2023-05-08T02:40:16;14.70;99.90
8856;DHT22;4464;50.882;4.730;2023-05-08T02:42:43;14.70;99.90
8856;DHT22;4464;50.882;4.730;2023-05-08T02:45:10;14.60;99.90
8856;DHT22;4464;50.882;4.730;2023-05-08T02:51:08;14.70;99.90
8856;DHT22;4464;50.882;4.730;2023-05-08T02:54:02;14.70;99.90
8856;DHT22;4464;50.882;4.730;2023-05-08T02:56:54;14.60;99.90
8856;DHT22;4464;50.882;4.730;2023-05-08T02:59:29;14.70;99.90
8856;DHT22;4464;50.882;4.730;2023-05-08T03:04:35;14.70;99.90
8856;DHT22;4464;50.882;4.730;2023-05-08T03:07:02;14.70;99.90
8856;DHT22;4464;50.882;4.730;2023-05-08T03:09:36;14.70;99.90
8856;DHT22;4464;50.882;4.730;2023-05-08T03:12:10;14.60;99.90
8856;DHT22;4464;50.882;4.730;2023-05-08T03:14:43;14.70;99.90
8856;DHT22;4464;50.882;4.730;2023-05-08T03:17:15;14.60;99.90
8856;DHT22;4464;50.882;4.730;2023-05-08T03:19:45;14.60;99.90
8856;DHT22;4464;50.882;4.730;2023-05-08T03:22:14;14.60;99.90
8856;DHT22;4464;50.882;4.730;2023-05-08T03:24:41;14.50;99.90
8856;DHT22;4464;50.882;4.730;2023-05-08T03:27:09;14.60;99.90
8856;DHT22;4464;50.882;4.730;2023-05-08T03:29:39;14.50;99.90
8856;DHT22;4464;50.882;4.730;2023-05-08T03:32:06;14.50;99.90
8856;DHT22;4464;50.882;4.730;2023-05-08T03:34:35;14.50;99.90
8856;DHT22;4464;50.882;4.730;2023-05-08T03:37:02;14.50;99.90
8856;DHT22;4464;50.882;4.730;2023-05-08T03:39:28;14.50;99.90
8856;DHT22;4464;50.882;4.730;2023-05-08T03:41:59;14.50;99.90
8856;DHT22;4464;50.882;4.730;2023-05-08T03:44:26;14.50;99.90
8856;DHT22;4464;50.882;4.730;2023-05-08T03:46:54;14.50;99.90
8856;DHT22;4464;50.882;4.730;2023-05-08T03:49:24;14.50;99.90
8856;DHT22;4464;50.882;4.730;2023-05-08T03:51:53;14.50;99.90
8856;DHT22;4464;50.882;4.730;2023-05-08T03:54:21;14.50;99.90
8856;DHT22;4464;50.882;4.730;2023-05-08T03:56:51;14.40;99.90
8856;DHT22;4464;50.882;4.730;2023-05-08T04:02:35;14.40;99.90
8856;DHT22;4464;50.882;4.730;2023-05-08T04:05:13;14.50;99.90
8856;DHT22;4464;50.882;4.730;2023-05-08T04:07:50;14.40;99.90
8856;DHT22;4464;50.882;4.730;2023-05-08T04:15:20;14.40;99.90
8856;DHT22;4464;50.882;4.730;2023-05-08T04:20:29;14.40;99.90
8856;DHT22;4464;50.882;4.730;2023-05-08T04:22:56;14.40;99.90
8856;DHT22;4464;50.882;4.730;2023-05-08T04:25:23;14.30;99.90
8856;DHT22;4464;50.882;4.730;2023-05-08T04:27:50;14.40;99.90
8856;DHT22;4464;50.882;4.730;2023-05-08T04:30:16;14.40;99.90
8856;DHT22;4464;50.882;4.730;2023-05-08T04:32:45;14.30;99.90
8856;DHT22;4464;50.882;4.730;2023-05-08T04:35:13;14.40;99.90
8856;DHT22;4464;50.882;4.730;2023-05-08T04:37:45;14.40;99.90
8856;DHT22;4464;50.882;4.730;2023-05-08T04:40:14;14.30;99.90
8856;DHT22;4464;50.882;4.730;2023-05-08T04:42:43;14.30;99.90
8856;DHT22;4464;50.882;4.730;2023-05-08T04:45:11;14.30;99.90
8856;DHT22;4464;50.882;4.730;2023-05-08T04:47:37;14.30;99.90
8856;DHT22;4464;50.882;4.730;2023-05-08T04:50:03;14.30;99.90
8856;DHT22;4464;50.882;4.730;2023-05-08T04:52:29;14.40;99.90
8856;DHT22;4464;50.882;4.730;2023-05-08T04:54:59;14.50;99.90
8856;DHT22;4464;50.882;4.730;2023-05-08T04:57:25;14.60;99.90
8856;DHT22;4464;50.882;4.730;2023-05-08T04:59:51;14.60;99.90
8856;DHT22;4464;50.882;4.730;2023-05-08T05:02:16;14.50;99.90
8856;DHT22;4464;50.882;4.730;2023-05-08T05:04:42;14.40;99.90
8856;DHT22;4464;50.882;4.730;2023-05-08T05:07:08;14.30;99.90
8856;DHT22;4464;50.882;4.730;2023-05-08T05:09:33;14.30;99.90
8856;DHT22;4464;50.882;4.730;2023-05-08T05:12:05;14.30;99.90
8856;DHT22;4464;50.882;4.730;2023-05-08T05:14:33;14.30;99.90
8856;DHT22;4464;50.882;4.730;2023-05-08T05:16:59;14.30;99.90
8856;DHT22;4464;50.882;4.730;2023-05-08T05:19:24;14.30;99.90
8856;DHT22;4464;50.882;4.730;2023-05-08T05:21:51;14.30;99.90
8856;DHT22;4464;50.882;4.730;2023-05-08T05:24:17;14.40;99.90
8856;DHT22;4464;50.882;4.730;2023-05-08T05:26:43;14.40;99.90
8856;DHT22;4464;50.882;4.730;2023-05-08T05:29:08;14.30;99.90
8856;DHT22;4464;50.882;4.730;2023-05-08T05:31:34;14.30;99.90
8856;DHT22;4464;50.882;4.730;2023-05-08T05:34:02;14.30;99.90
8856;DHT22;4464;50.882;4.730;2023-05-08T05:36:32;14.40;99.90
8856;DHT22;4464;50.882;4.730;2023-05-08T05:38:58;14.40;99.90
8856;DHT22;4464;50.882;4.730;2023-05-08T05:41:24;14.40;99.90
8856;DHT22;4464;50.882;4.730;2023-05-08T05:43:51;14.50;99.90
8856;DHT22;4464;50.882;4.730;2023-05-08T05:46:19;14.50;99.90
8856;DHT22;4464;50.882;4.730;2023-05-08T05:48:47;14.60;99.90
8856;DHT22;4464;50.882;4.730;2023-05-08T05:51:13;14.60;99.90
8856;DHT22;4464;50.882;4.730;2023-05-08T05:53:39;14.50;99.90
8856;DHT22;4464;50.882;4.730;2023-05-08T05:56:05;14.50;99.90
8856;DHT22;4464;50.882;4.730;2023-05-08T05:58:36;14.50;99.90
8856;DHT22;4464;50.882;4.730;2023-05-08T06:01:02;14.50;99.90
8856;DHT22;4464;50.882;4.730;2023-05-08T06:03:28;14.50;99.90
8856;DHT22;4464;50.882;4.730;2023-05-08T06:05:53;14.60;99.90
8856;DHT22;4464;50.882;4.730;2023-05-08T06:08:19;14.60;99.90
8856;DHT22;4464;50.882;4.730;2023-05-08T06:10:45;14.70;99.90
8856;DHT22;4464;50.882;4.730;2023-05-08T06:13:13;14.80;99.90
8856;DHT22;4464;50.882;4.730;2023-05-08T06:15:39;14.80;99.90
8856;DHT22;4464;50.882;4.730;2023-05-08T06:18:07;15.00;99.90
8856;DHT22;4464;50.882;4.730;2023-05-08T06:20:35;15.00;99.90
8856;DHT22;4464;50.882;4.730;2023-05-08T06:23:01;15.00;99.90
8856;DHT22;4464;50.882;4.730;2023-05-08T06:25:26;15.00;99.90
8856;DHT22;4464;50.882;4.730;2023-05-08T06:27:52;15.10;99.90
8856;DHT22;4464;50.882;4.730;2023-05-08T06:30:18;15.20;99.90
8856;DHT22;4464;50.882;4.730;2023-05-08T06:32:44;15.30;99.90
8856;DHT22;4464;50.882;4.730;2023-05-08T06:35:12;15.50;99.90
8856;DHT22;4464;50.882;4.730;2023-05-08T06:37:39;15.50;99.90
8856;DHT22;4464;50.882;4.730;2023-05-08T06:40:08;15.60;99.90
8856;DHT22;4464;50.882;4.730;2023-05-08T06:42:34;15.50;99.90
8856;DHT22;4464;50.882;4.730;2023-05-08T06:45:00;15.60;99.90
8856;DHT22;4464;50.882;4.730;2023-05-08T06:47:25;15.70;99.90
8856;DHT22;4464;50.882;4.730;2023-05-08T06:49:51;15.90;99.90
8856;DHT22;4464;50.882;4.730;2023-05-08T06:52:18;16.10;99.90
8856;DHT22;4464;50.882;4.730;2023-05-08T06:54:45;16.20;99.90
8856;DHT22;4464;50.882;4.730;2023-05-08T06:57:11;16.30;99.90
8856;DHT22;4464;50.882;4.730;2023-05-08T06:59:39;16.30;99.90
8856;DHT22;4464;50.882;4.730;2023-05-08T07:02:05;16.50;99.90
8856;DHT22;4464;50.882;4.730;2023-05-08T07:04:31;16.40;99.90
8856;DHT22;4464;50.882;4.730;2023-05-08T07:06:57;16.60;99.90
8856;DHT22;4464;50.882;4.730;2023-05-08T07:09:23;16.80;99.90
8856;DHT22;4464;50.882;4.730;2023-05-08T07:11:48;17.10;99.90
8856;DHT22;4464;50.882;4.730;2023-05-08T07:14:16;17.30;99.90
8856;DHT22;4464;50.882;4.730;2023-05-08T07:16:42;17.30;99.90
8856;DHT22;4464;50.882;4.730;2023-05-08T07:19:10;17.40;99.90
8856;DHT22;4464;50.882;4.730;2023-05-08T07:21:36;17.50;99.90
8856;DHT22;4464;50.882;4.730;2023-05-08T07:24:01;17.40;99.90
8856;DHT22;4464;50.882;4.730;2023-05-08T07:26:29;17.50;99.90
8856;DHT22;4464;50.882;4.730;2023-05-08T07:28:55;17.40;99.90
8856;DHT22;4464;50.882;4.730;2023-05-08T07:31:24;17.50;99.90
8856;DHT22;4464;50.882;4.730;2023-05-08T07:33:55;17.70;99.90
8856;DHT22;4464;50.882;4.730;2023-05-08T07:36:21;17.90;99.90
8856;DHT22;4464;50.882;4.730;2023-05-08T07:38:47;17.90;99.90
8856;DHT22;4464;50.882;4.730;2023-05-08T07:41:19;17.50;99.90
8856;DHT22;4464;50.882;4.730;2023-05-08T07:43:50;17.60;99.90
8856;DHT22;4464;50.882;4.730;2023-05-08T07:46:19;17.50;99.90
8856;DHT22;4464;50.882;4.730;2023-05-08T07:48:44;17.40;99.90
8856;DHT22;4464;50.882;4.730;2023-05-08T07:51:10;17.20;99.90
8856;DHT22;4464;50.882;4.730;2023-05-08T07:53:38;17.50;99.90
8856;DHT22;4464;50.882;4.730;2023-05-08T07:56:04;17.20;99.90
8856;DHT22;4464;50.882;4.730;2023-05-08T07:58:30;17.20;99.90
8856;DHT22;4464;50.882;4.730;2023-05-08T08:00:56;17.40;99.90
8856;DHT22;4464;50.882;4.730;2023-05-08T08:03:22;17.50;99.90
8856;DHT22;4464;50.882;4.730;2023-05-08T08:05:48;17.60;99.90
8856;DHT22;4464;50.882;4.730;2023-05-08T08:08:13;17.80;99.90
8856;DHT22;4464;50.882;4.730;2023-05-08T08:10:39;17.70;99.90
8856;DHT22;4464;50.882;4.730;2023-05-08T08:13:05;17.60;99.90
8856;DHT22;4464;50.882;4.730;2023-05-08T08:15:31;17.30;99.90
8856;DHT22;4464;50.882;4.730;2023-05-08T08:17:56;17.30;99.90
8856;DHT22;4464;50.882;4.730;2023-05-08T08:20:22;17.60;99.90
8856;DHT22;4464;50.882;4.730;2023-05-08T08:22:48;17.70;99.90
8856;DHT22;4464;50.882;4.730;2023-05-08T08:25:13;18.00;99.90
8856;DHT22;4464;50.882;4.730;2023-05-08T08:27:39;17.90;99.90
8856;DHT22;4464;50.882;4.730;2023-05-08T08:30:06;17.70;99.90
8856;DHT22;4464;50.882;4.730;2023-05-08T08:32:32;17.70;99.90
8856;DHT22;4464;50.882;4.730;2023-05-08T08:34:57;17.80;99.90
8856;DHT22;4464;50.882;4.730;2023-05-08T08:37:25;18.00;99.90
8856;DHT22;4464;50.882;4.730;2023-05-08T08:39:51;17.70;99.90
8856;DHT22;4464;50.882;4.730;2023-05-08T08:42:17;18.20;99.90
8856;DHT22;4464;50.882;4.730;2023-05-08T08:44:43;18.50;99.90
8856;DHT22;4464;50.882;4.730;2023-05-08T08:47:13;18.70;99.90
8856;DHT22;4464;50.882;4.730;2023-05-08T08:49:45;19.00;99.90
8856;DHT22;4464;50.882;4.730;2023-05-08T08:55:01;20.00;99.90
8856;DHT22;4464;50.882;4.730;2023-05-08T08:57:31;20.50;99.90
8856;DHT22;4464;50.882;4.730;2023-05-08T09:00:00;20.80;99.90
8856;DHT22;4464;50.882;4.730;2023-05-08T09:02:30;20.90;99.90
8856;DHT22;4464;50.882;4.730;2023-05-08T09:04:57;20.90;99.90
8856;DHT22;4464;50.882;4.730;2023-05-08T09:07:28;21.00;99.90
8856;DHT22;4464;50.882;4.730;2023-05-08T09:09:57;21.20;99.90
8856;DHT22;4464;50.882;4.730;2023-05-08T09:12:23;21.00;99.90
8856;DHT22;4464;50.882;4.730;2023-05-08T09:14:49;20.70;99.90
8856;DHT22;4464;50.882;4.730;2023-05-08T09:17:15;20.40;99.90
8856;DHT22;4464;50.882;4.730;2023-05-08T09:19:41;20.20;99.90
8856;DHT22;4464;50.882;4.730;2023-05-08T09:22:07;20.20;99.90
8856;DHT22;4464;50.882;4.730;2023-05-08T09:24:53;20.40;99.90
8856;DHT22;4464;50.882;4.730;2023-05-08T09:27:24;20.30;99.90
8856;DHT22;4464;50.882;4.730;2023-05-08T09:30:06;20.10;99.90
8856;DHT22;4464;50.882;4.730;2023-05-08T09:32:34;19.70;99.90
8856;DHT22;4464;50.882;4.730;2023-05-08T09:35:00;19.50;99.90
8856;DHT22;4464;50.882;4.730;2023-05-08T09:37:28;19.10;99.90
8856;DHT22;4464;50.882;4.730;2023-05-08T09:40:20;18.90;99.90
8856;DHT22;4464;50.882;4.730;2023-05-08T09:42:48;18.80;99.90
8856;DHT22;4464;50.882;4.730;2023-05-08T09:45:34;18.80;99.90
8856;DHT22;4464;50.882;4.730;2023-05-08T09:48:03;18.80;99.90
8856;DHT22;4464;50.882;4.730;2023-05-08T09:50:29;18.80;99.90
8856;DHT22;4464;50.882;4.730;2023-05-08T09:52:56;18.90;99.90
8856;DHT22;4464;50.882;4.730;2023-05-08T09:55:22;19.10;99.90
8856;DHT22;4464;50.882;4.730;2023-05-08T09:57:58;19.50;99.90
8856;DHT22;4464;50.882;4.730;2023-05-08T10:00:25;20.00;99.90
8856;DHT22;4464;50.882;4.730;2023-05-08T10:02:59;20.50;99.90
8856;DHT22;4464;50.882;4.730;2023-05-08T10:05:29;21.00;99.90
8856;DHT22;4464;50.882;4.730;2023-05-08T10:07:56;21.40;99.90
8856;DHT22;4464;50.882;4.730;2023-05-08T10:10:31;21.20;99.90
8856;DHT22;4464;50.882;4.730;2023-05-08T10:12:57;20.60;99.90
8856;DHT22;4464;50.882;4.730;2023-05-08T10:15:26;20.30;99.90
8856;DHT22;4464;50.882;4.730;2023-05-08T10:18:04;19.90;99.90
8856;DHT22;4464;50.882;4.730;2023-05-08T10:20:34;19.60;99.90
8856;DHT22;4464;50.882;4.730;2023-05-08T10:23:03;19.40;99.90
8856;DHT22;4464;50.882;4.730;2023-05-08T10:25:35;19.40;99.90
8856;DHT22;4464;50.882;4.730;2023-05-08T10:28:15;19.50;99.90
8856;DHT22;4464;50.882;4.730;2023-05-08T10:30:47;19.60;99.90
8856;DHT22;4464;50.882;4.730;2023-05-08T10:33:14;20.00;99.90
8856;DHT22;4464;50.882;4.730;2023-05-08T10:35:44;20.00;99.90
8856;DHT22;4464;50.882;4.730;2023-05-08T10:38:15;20.20;99.90
8856;DHT22;4464;50.882;4.730;2023-05-08T10:40:41;20.60;99.90
8856;DHT22;4464;50.882;4.730;2023-05-08T10:43:08;20.50;99.90
8856;DHT22;4464;50.882;4.730;2023-05-08T10:45:35;20.10;99.90
8856;DHT22;4464;50.882;4.730;2023-05-08T10:48:31;20.00;99.90
8856;DHT22;4464;50.882;4.730;2023-05-08T10:53:35;19.70;99.90
8856;DHT22;4464;50.882;4.730;2023-05-08T10:56:03;19.50;99.90
8856;DHT22;4464;50.882;4.730;2023-05-08T11:03:32;20.20;99.90
8856;DHT22;4464;50.882;4.730;2023-05-08T11:05:59;20.60;99.90
8856;DHT22;4464;50.882;4.730;2023-05-08T11:08:29;21.10;99.90
8856;DHT22;4464;50.882;4.730;2023-05-08T11:13:43;21.50;99.90
8856;DHT22;4464;50.882;4.730;2023-05-08T11:16:18;21.20;99.90
8856;DHT22;4464;50.882;4.730;2023-05-08T11:19:18;21.10;99.90
8856;DHT22;4464;50.882;4.730;2023-05-08T11:22:24;20.90;99.90
8856;DHT22;4464;50.882;4.730;2023-05-08T11:24:56;20.70;99.90
8856;DHT22;4464;50.882;4.730;2023-05-08T11:38:24;22.50;99.90
8856;DHT22;4464;50.882;4.730;2023-05-08T11:45:59;22.90;99.90
8856;DHT22;4464;50.882;4.730;2023-05-08T11:48:26;22.90;99.90
8856;DHT22;4464;50.882;4.730;2023-05-08T11:50:52;21.80;99.90
8856;DHT22;4464;50.882;4.730;2023-05-08T11:53:17;21.70;99.90
8856;DHT22;4464;50.882;4.730;2023-05-08T11:55:52;21.80;99.90
8856;DHT22;4464;50.882;4.730;2023-05-08T11:58:21;21.90;99.90
8856;DHT22;4464;50.882;4.730;2023-05-08T12:00:47;22.50;99.90
8856;DHT22;4464;50.882;4.730;2023-05-08T12:03:18;23.00;99.90
8856;DHT22;4464;50.882;4.730;2023-05-08T12:05:45;22.60;99.90
8856;DHT22;4464;50.882;4.730;2023-05-08T12:08:12;23.00;99.90
8856;DHT22;4464;50.882;4.730;2023-05-08T12:10:52;23.00;99.90
8856;DHT22;4464;50.882;4.730;2023-05-08T12:13:19;22.40;99.90
8856;DHT22;4464;50.882;4.730;2023-05-08T12:15:47;21.60;99.90
8856;DHT22;4464;50.882;4.730;2023-05-08T12:18:13;21.30;99.90
8856;DHT22;4464;50.882;4.730;2023-05-08T12:20:42;21.60;99.90
8856;DHT22;4464;50.882;4.730;2023-05-08T12:23:10;21.80;99.90
8856;DHT22;4464;50.882;4.730;2023-05-08T12:25:39;21.90;99.90
8856;DHT22;4464;50.882;4.730;2023-05-08T12:28:08;22.40;99.90
8856;DHT22;4464;50.882;4.730;2023-05-08T12:30:37;22.20;99.90
8856;DHT22;4464;50.882;4.730;2023-05-08T12:33:07;22.70;99.90
8856;DHT22;4464;50.882;4.730;2023-05-08T12:35:39;23.00;99.90
8856;DHT22;4464;50.882;4.730;2023-05-08T12:38:06;23.40;99.90
8856;DHT22;4464;50.882;4.730;2023-05-08T12:40:53;23.60;99.90
8856;DHT22;4464;50.882;4.730;2023-05-08T12:43:30;23.20;99.90
8856;DHT22;4464;50.882;4.730;2023-05-08T12:45:58;23.00;99.90
8856;DHT22;4464;50.882;4.730;2023-05-08T12:48:24;22.60;99.90
8856;DHT22;4464;50.882;4.730;2023-05-08T12:50:50;22.30;99.90
8856;DHT22;4464;50.882;4.730;2023-05-08T12:53:17;22.50;99.90
8856;DHT22;4464;50.882;4.730;2023-05-08T12:55:56;22.90;99.90
8856;DHT22;4464;50.882;4.730;2023-05-08T12:58:27;22.90;99.90
8856;DHT22;4464;50.882;4.730;2023-05-08T13:01:09;22.70;99.90
8856;DHT22;4464;50.882;4.730;2023-05-08T13:03:39;22.80;99.90
8856;DHT22;4464;50.882;4.730;2023-05-08T13:06:05;23.20;99.90
8856;DHT22;4464;50.882;4.730;2023-05-08T13:08:33;23.20;99.90
8856;DHT22;4464;50.882;4.730;2023-05-08T13:11:01;23.00;99.90
8856;DHT22;4464;50.882;4.730;2023-05-08T13:13:33;22.60;99.90
8856;DHT22;4464;50.882;4.730;2023-05-08T13:16:08;23.20;99.90
8856;DHT22;4464;50.882;4.730;2023-05-08T13:18:36;23.70;99.90
8856;DHT22;4464;50.882;4.730;2023-05-08T13:21:02;24.60;99.90
8856;DHT22;4464;50.882;4.730;2023-05-08T13:23:28;24.70;99.90
8856;DHT22;4464;50.882;4.730;2023-05-08T13:25:56;24.70;99.90
8856;DHT22;4464;50.882;4.730;2023-05-08T13:28:23;24.30;99.90
8856;DHT22;4464;50.882;4.730;2023-05-08T13:30:49;24.30;99.90
8856;DHT22;4464;50.882;4.730;2023-05-08T13:33:15;24.10;99.90
8856;DHT22;4464;50.882;4.730;2023-05-08T13:35:41;24.00;99.90
8856;DHT22;4464;50.882;4.730;2023-05-08T13:38:06;23.80;99.90
8856;DHT22;4464;50.882;4.730;2023-05-08T13:40:34;24.10;99.90
8856;DHT22;4464;50.882;4.730;2023-05-08T13:43:00;24.30;99.90
8856;DHT22;4464;50.882;4.730;2023-05-08T13:45:25;24.00;99.90
8856;DHT22;4464;50.882;4.730;2023-05-08T13:47:51;23.40;99.90
8856;DHT22;4464;50.882;4.730;2023-05-08T13:50:17;23.60;99.90
8856;DHT22;4464;50.882;4.730;2023-05-08T13:52:46;23.30;99.90
8856;DHT22;4464;50.882;4.730;2023-05-08T13:55:13;24.00;99.90
8856;DHT22;4464;50.882;4.730;2023-05-08T13:57:39;24.40;99.90
8856;DHT22;4464;50.882;4.730;2023-05-08T14:00:08;25.00;99.90
8856;DHT22;4464;50.882;4.730;2023-05-08T14:02:35;23.90;99.90
8856;DHT22;4464;50.882;4.730;2023-05-08T14:05:01;23.20;99.90
8856;DHT22;4464;50.882;4.730;2023-05-08T14:07:27;23.20;99.90
8856;DHT22;4464;50.882;4.730;2023-05-08T14:09:57;22.90;99.90
8856;DHT22;4464;50.882;4.730;2023-05-08T14:12:23;23.30;99.90
8856;DHT22;4464;50.882;4.730;2023-05-08T14:14:49;23.40;99.90
8856;DHT22;4464;50.882;4.730;2023-05-08T14:17:16;23.30;99.90
8856;DHT22;4464;50.882;4.730;2023-05-08T14:19:42;23.60;99.90
8856;DHT22;4464;50.882;4.730;2023-05-08T14:22:08;23.40;99.90
8856;DHT22;4464;50.882;4.730;2023-05-08T14:24:33;23.60;99.90
8856;DHT22;4464;50.882;4.730;2023-05-08T14:27:02;23.90;99.90
8856;DHT22;4464;50.882;4.730;2023-05-08T14:29:31;23.70;99.90
8856;DHT22;4464;50.882;4.730;2023-05-08T14:31:59;23.40;99.90
8856;DHT22;4464;50.882;4.730;2023-05-08T14:34:25;23.20;99.90
8856;DHT22;4464;50.882;4.730;2023-05-08T14:36:51;23.10;99.90
8856;DHT22;4464;50.882;4.730;2023-05-08T14:39:19;22.90;99.90
8856;DHT22;4464;50.882;4.730;2023-05-08T14:41:45;22.20;99.90
8856;DHT22;4464;50.882;4.730;2023-05-08T14:44:11;22.20;99.90
8856;DHT22;4464;50.882;4.730;2023-05-08T14:46:41;22.40;99.90
8856;DHT22;4464;50.882;4.730;2023-05-08T14:49:07;22.20;99.90
8856;DHT22;4464;50.882;4.730;2023-05-08T14:51:32;22.20;99.90
8856;DHT22;4464;50.882;4.730;2023-05-08T14:53:58;22.40;99.90
8856;DHT22;4464;50.882;4.730;2023-05-08T14:56:26;22.30;99.90
8856;DHT22;4464;50.882;4.730;2023-05-08T14:58:52;22.70;99.90
8856;DHT22;4464;50.882;4.730;2023-05-08T15:01:20;22.80;99.90
8856;DHT22;4464;50.882;4.730;2023-05-08T15:03:49;22.80;99.90
8856;DHT22;4464;50.882;4.730;2023-05-08T15:06:21;22.90;99.90
8856;DHT22;4464;50.882;4.730;2023-05-08T15:08:48;23.40;99.90
8856;DHT22;4464;50.882;4.730;2023-05-08T15:11:14;23.60;99.90
8856;DHT22;4464;50.882;4.730;2023-05-08T15:13:40;23.80;99.90
8856;DHT22;4464;50.882;4.730;2023-05-08T15:16:10;24.00;99.90
8856;DHT22;4464;50.882;4.730;2023-05-08T15:18:38;23.60;99.90
8856;DHT22;4464;50.882;4.730;2023-05-08T15:21:04;23.60;99.90
8856;DHT22;4464;50.882;4.730;2023-05-08T15:23:32;23.80;99.90
8856;DHT22;4464;50.882;4.730;2023-05-08T15:25:58;23.80;99.90
8856;DHT22;4464;50.882;4.730;2023-05-08T15:28:24;23.20;99.90
8856;DHT22;4464;50.882;4.730;2023-05-08T15:30:50;23.20;99.90
8856;DHT22;4464;50.882;4.730;2023-05-08T15:33:16;22.80;99.90
8856;DHT22;4464;50.882;4.730;2023-05-08T15:35:41;22.50;99.90
8856;DHT22;4464;50.882;4.730;2023-05-08T15:38:09;22.20;99.90
8856;DHT22;4464;50.882;4.730;2023-05-08T15:40:37;22.10;99.90
8856;DHT22;4464;50.882;4.730;2023-05-08T15:43:05;21.70;99.90
8856;DHT22;4464;50.882;4.730;2023-05-08T15:45:32;21.60;99.90
8856;DHT22;4464;50.882;4.730;2023-05-08T15:47:58;21.30;99.90
8856;DHT22;4464;50.882;4.730;2023-05-08T15:50:24;21.30;99.90
8856;DHT22;4464;50.882;4.730;2023-05-08T15:52:50;21.10;99.90
8856;DHT22;4464;50.882;4.730;2023-05-08T15:55:15;20.80;99.90
8856;DHT22;4464;50.882;4.730;2023-05-08T15:57:42;20.60;99.90
8856;DHT22;4464;50.882;4.730;2023-05-08T16:00:13;20.60;99.90
8856;DHT22;4464;50.882;4.730;2023-05-08T16:02:38;20.50;99.90
8856;DHT22;4464;50.882;4.730;2023-05-08T16:05:07;20.40;99.90
8856;DHT22;4464;50.882;4.730;2023-05-08T16:07:32;20.20;99.90
8856;DHT22;4464;50.882;4.730;2023-05-08T16:09:58;20.10;99.90
8856;DHT22;4464;50.882;4.730;2023-05-08T16:12:24;20.10;99.90
8856;DHT22;4464;50.882;4.730;2023-05-08T16:14:54;20.10;99.90
8856;DHT22;4464;50.882;4.730;2023-05-08T16:17:20;20.10;99.90
8856;DHT22;4464;50.882;4.730;2023-05-08T16:19:45;19.90;99.90
8856;DHT22;4464;50.882;4.730;2023-05-08T16:22:13;19.90;99.90
8856;DHT22;4464;50.882;4.730;2023-05-08T16:24:39;19.80;99.90
8856;DHT22;4464;50.882;4.730;2023-05-08T16:27:09;19.80;99.90
8856;DHT22;4464;50.882;4.730;2023-05-08T16:29:35;19.90;99.90
8856;DHT22;4464;50.882;4.730;2023-05-08T16:32:01;19.80;99.90
8856;DHT22;4464;50.882;4.730;2023-05-08T16:34:27;19.80;99.90
8856;DHT22;4464;50.882;4.730;2023-05-08T16:36:52;19.70;99.90
8856;DHT22;4464;50.882;4.730;2023-05-08T16:39:18;19.70;99.90
8856;DHT22;4464;50.882;4.730;2023-05-08T16:41:46;19.90;99.90
8856;DHT22;4464;50.882;4.730;2023-05-08T16:44:12;19.80;99.90
8856;DHT22;4464;50.882;4.730;2023-05-08T16:46:38;19.80;99.90
8856;DHT22;4464;50.882;4.730;2023-05-08T16:49:03;19.70;99.90
8856;DHT22;4464;50.882;4.730;2023-05-08T16:51:31;19.70;99.90
8856;DHT22;4464;50.882;4.730;2023-05-08T16:53:57;19.70;99.90
8856;DHT22;4464;50.882;4.730;2023-05-08T16:56:23;19.70;99.90
8856;DHT22;4464;50.882;4.730;2023-05-08T16:58:49;19.70;99.90
8856;DHT22;4464;50.882;4.730;2023-05-08T17:01:14;19.60;99.90
8856;DHT22;4464;50.882;4.730;2023-05-08T17:03:40;19.40;99.90
8856;DHT22;4464;50.882;4.730;2023-05-08T17:06:06;19.20;99.90
8856;DHT22;4464;50.882;4.730;2023-05-08T17:08:34;19.20;99.90
8856;DHT22;4464;50.882;4.730;2023-05-08T17:11:00;19.10;99.90
8856;DHT22;4464;50.882;4.730;2023-05-08T17:13:26;19.20;99.90
8856;DHT22;4464;50.882;4.730;2023-05-08T17:15:51;19.30;99.90